createdAt,value
2022-09-10T00:02:01.941Z,68.41
2022-09-10T00:04:28.606Z,68.24
2022-09-10T00:06:55.707Z,68.17
2022-09-10T00:09:23.070Z,68.22
2022-09-10T00:11:49.944Z,68.00
2022-09-10T00:14:20.529Z,68.54
2022-09-10T00:16:47.921Z,68.16
2022-09-10T00:19:15.519Z,68.31
2022-09-10T00:21:44.367Z,68.20
2022-09-10T00:24:10.876Z,68.44
2022-09-10T00:26:39.583Z,68.21
2022-09-10T00:29:09.113Z,68.44
2022-09-10T00:31:36.070Z,68.29
2022-09-10T00:34:05.691Z,68.53
2022-09-10T00:36:36.030Z,68.59
2022-09-10T00:39:06.233Z,68.72
2022-09-10T00:41:34.207Z,68.29
2022-09-10T00:44:03.705Z,68.74
2022-09-10T00:46:33.492Z,68.45
2022-09-10T00:49:03.725Z,68.67
2022-09-10T00:51:35.199Z,68.67
2022-09-10T00:54:03.979Z,68.53
2022-09-10T00:56:32.757Z,68.80
2022-09-10T00:59:00.221Z,68.59
2022-09-10T01:01:26.780Z,68.53
2022-09-10T01:03:54.844Z,68.82
2022-09-10T01:06:21.421Z,68.53
2022-09-10T01:08:47.923Z,68.91
2022-09-10T01:11:23.122Z,68.90
2022-09-10T01:14:01.745Z,69.37
2022-09-10T01:17:18.488Z,69.61
2022-09-10T01:20:03.838Z,69.44
2022-09-10T01:22:50.936Z,69.65
2022-09-10T01:25:55.373Z,69.46
2022-09-10T01:28:39.488Z,69.34
2022-09-10T01:31:45.392Z,69.45
2022-09-10T01:34:42.044Z,69.13
2022-09-10T01:37:14.451Z,68.78
2022-09-10T01:39:42.286Z,68.62
2022-09-10T01:42:08.865Z,68.38
2022-09-10T01:44:50.123Z,69.11
2022-09-10T01:47:35.342Z,69.23
2022-09-10T01:50:04.508Z,68.80
2022-09-10T01:52:49.619Z,69.20
2022-09-10T01:55:37.617Z,69.16
2022-09-10T01:58:22.164Z,69.04
2022-09-10T02:01:25.101Z,69.07
2022-09-10T02:03:56.963Z,68.55
2022-09-10T02:06:28.205Z,68.32
2022-09-10T02:08:56.888Z,68.32
2022-09-10T02:11:23.447Z,68.34
2022-09-10T02:13:50.440Z,68.71
2022-09-10T02:16:26.949Z,68.86
2022-09-10T02:18:53.675Z,68.56
2022-09-10T02:21:20.221Z,68.17
2022-09-10T02:23:52.365Z,68.77
2022-09-10T02:26:18.953Z,68.10
2022-09-10T02:28:45.799Z,68.50
2022-09-10T02:31:12.916Z,68.61
2022-09-10T02:33:39.517Z,68.32
2022-09-10T02:36:06.567Z,68.31
2022-09-10T02:38:33.404Z,68.23
2022-09-10T02:41:00.171Z,68.18
2022-09-10T02:43:27.957Z,68.16
2022-09-10T02:45:58.074Z,68.60
2022-09-10T02:48:26.674Z,68.65
2022-09-10T02:50:54.459Z,68.35
2022-09-10T02:53:21.317Z,68.49
2022-09-10T02:55:48.619Z,68.71
2022-09-10T02:58:16.437Z,68.89
2022-09-10T03:00:44.430Z,68.66
2022-09-10T03:03:11.251Z,68.66
2022-09-10T03:05:38.668Z,68.74
2022-09-10T03:08:06.232Z,68.48
2022-09-10T03:10:33.187Z,68.85
2022-09-10T03:13:00.422Z,68.83
2022-09-10T03:15:27.789Z,68.69
2022-09-10T03:17:54.725Z,68.67
2022-09-10T03:20:23.110Z,68.28
2022-09-10T03:22:51.520Z,68.79
2022-09-10T03:25:22.755Z,68.70
2022-09-10T03:27:49.356Z,68.66
2022-09-10T03:30:15.982Z,68.89
2022-09-10T03:32:42.482Z,68.75
2022-09-10T03:35:10.152Z,68.87
2022-09-10T03:37:36.714Z,68.87
2022-09-10T03:40:03.939Z,69.08
2022-09-10T03:42:30.454Z,68.91
2022-09-10T03:44:56.963Z,69.10
2022-09-10T03:47:24.035Z,68.99
2022-09-10T03:49:50.847Z,69.16
2022-09-10T03:52:17.949Z,68.92
2022-09-10T03:54:45.624Z,68.77
2022-09-10T03:57:12.284Z,68.64
2022-09-10T03:59:41.235Z,68.93
2022-09-10T04:02:09.401Z,68.77
2022-09-10T04:04:37.418Z,68.84
2022-09-10T04:07:04.565Z,69.09
2022-09-10T04:09:32.569Z,69.09
2022-09-10T04:11:59.896Z,68.75
2022-09-10T04:14:27.127Z,69.08
2022-09-10T04:16:53.674Z,68.62
2022-09-10T04:19:20.321Z,68.64
2022-09-10T04:21:46.843Z,68.54
2022-09-10T04:24:13.441Z,68.59
2022-09-10T04:26:40.153Z,68.68
2022-09-10T04:29:06.899Z,68.32
2022-09-10T04:31:33.459Z,68.57
2022-09-10T04:34:01.450Z,68.62
2022-09-10T04:36:28.599Z,68.57
2022-09-10T04:38:55.065Z,68.69
2022-09-10T04:41:21.902Z,68.60
2022-09-10T04:43:48.493Z,68.76
2022-09-10T04:46:15.249Z,68.49
2022-09-10T04:48:41.804Z,68.62
2022-09-10T04:51:17.565Z,68.80
2022-09-10T04:53:45.614Z,68.80
2022-09-10T04:56:12.394Z,68.70
2022-09-10T04:58:39.457Z,68.87
2022-09-10T05:01:06.863Z,68.92
2022-09-10T05:03:33.711Z,68.89
2022-09-10T05:06:00.249Z,68.71
2022-09-10T05:08:26.834Z,68.69
2022-09-10T05:10:53.441Z,68.99
2022-09-10T05:13:19.981Z,68.80
2022-09-10T05:15:46.571Z,68.67
2022-09-10T05:18:13.206Z,68.97
2022-09-10T05:20:39.784Z,68.80
2022-09-10T05:23:06.375Z,68.99
2022-09-10T05:25:34.605Z,68.88
2022-09-10T05:28:01.665Z,68.84
2022-09-10T05:30:32.800Z,69.03
2022-09-10T05:33:02.856Z,69.23
2022-09-10T05:35:30.372Z,68.79
2022-09-10T05:37:57.773Z,68.75
2022-09-10T05:40:25.544Z,69.01
2022-09-10T05:42:52.151Z,68.86
2022-09-10T05:45:20.382Z,69.42
2022-09-10T05:47:47.658Z,68.96
2022-09-10T05:50:14.635Z,69.29
2022-09-10T05:52:41.193Z,69.14
2022-09-10T05:55:08.191Z,69.42
2022-09-10T05:57:35.549Z,69.12
2022-09-10T06:00:05.785Z,69.27
2022-09-10T06:02:33.555Z,69.21
2022-09-10T06:05:00.682Z,69.07
2022-09-10T06:07:29.592Z,68.75
2022-09-10T06:09:57.668Z,68.71
2022-09-10T06:12:24.524Z,68.79
2022-09-10T06:14:51.018Z,68.72
2022-09-10T06:17:17.833Z,68.36
2022-09-10T06:19:45.125Z,68.79
2022-09-10T06:22:12.875Z,68.69
2022-09-10T06:24:39.409Z,68.41
2022-09-10T06:27:06.469Z,68.51
2022-09-10T06:29:33.322Z,68.72
2022-09-10T06:32:00.529Z,68.56
2022-09-10T06:34:27.076Z,68.47
2022-09-10T06:36:53.623Z,68.19
2022-09-10T06:39:20.118Z,68.31
2022-09-10T06:41:49.722Z,68.22
2022-09-10T06:44:16.534Z,67.80
2022-09-10T06:49:31.424Z,67.72
2022-09-10T06:51:58.036Z,67.43
2022-09-10T06:54:26.469Z,67.52
2022-09-10T06:56:53.118Z,67.30
2022-09-10T06:59:19.652Z,67.70
2022-09-10T07:01:47.569Z,67.60
2022-09-10T07:04:14.191Z,67.60
2022-09-10T07:06:40.710Z,68.04
2022-09-10T07:09:07.403Z,67.77
2022-09-10T07:11:39.220Z,67.57
2022-09-10T07:14:12.335Z,67.83
2022-09-10T07:16:41.614Z,67.55
2022-09-10T07:19:08.200Z,67.84
2022-09-10T07:21:37.914Z,67.66
2022-09-10T07:24:05.834Z,67.81
2022-09-10T07:26:32.600Z,67.75
2022-09-10T07:28:59.171Z,67.93
2022-09-10T07:31:28.141Z,67.88
2022-09-10T07:33:55.456Z,68.17
2022-09-10T07:36:22.140Z,68.07
2022-09-10T07:38:52.741Z,68.35
2022-09-10T07:41:19.641Z,68.38
2022-09-10T07:43:46.490Z,68.18
2022-09-10T07:46:20.585Z,68.01
2022-09-10T07:48:51.385Z,68.01
2022-09-10T07:51:19.229Z,67.90
2022-09-10T07:53:50.439Z,67.79
2022-09-10T07:56:17.214Z,67.98
2022-09-10T07:58:43.871Z,67.94
2022-09-10T08:01:12.581Z,67.69
2022-09-10T08:03:40.088Z,67.68
2022-09-10T08:06:08.426Z,68.06
2022-09-10T08:08:38.400Z,68.08
2022-09-10T08:11:12.250Z,67.98
2022-09-10T08:13:45.527Z,68.27
2022-09-10T08:16:15.395Z,68.36
2022-09-10T08:18:43.660Z,68.72
2022-09-10T08:21:10.911Z,68.75
2022-09-10T08:23:41.362Z,68.41
2022-09-10T08:26:08.933Z,68.19
2022-09-10T08:28:36.878Z,68.18
2022-09-10T08:31:09.079Z,67.62
2022-09-10T08:33:36.958Z,67.66
2022-09-10T08:36:05.742Z,67.41
2022-09-10T08:38:37.352Z,67.38
2022-09-10T08:41:19.034Z,67.28
2022-09-10T08:43:51.821Z,66.92
2022-09-10T08:46:25.030Z,66.53
2022-09-10T08:49:02.186Z,66.26
2022-09-10T08:51:33.967Z,66.11
2022-09-10T08:54:12.403Z,65.83
2022-09-10T08:56:41.502Z,66.18
2022-09-10T08:59:20.303Z,65.95
2022-09-10T09:02:01.148Z,65.79
2022-09-10T09:04:42.849Z,65.81
2022-09-10T09:07:15.516Z,65.64
2022-09-10T09:09:42.074Z,66.17
2022-09-10T09:12:36.341Z,65.97
2022-09-10T09:15:11.549Z,66.04
2022-09-10T09:18:01.515Z,66.09
2022-09-10T09:20:50.079Z,66.42
2022-09-10T09:24:02.785Z,66.07
2022-09-10T09:26:36.173Z,66.12
2022-09-10T09:29:12.819Z,65.91
2022-09-10T09:31:46.518Z,65.72
2022-09-10T09:34:27.903Z,65.75
2022-09-10T09:36:56.464Z,66.08
2022-09-10T09:39:41.849Z,66.63
2022-09-10T09:42:29.033Z,66.37
2022-09-10T09:45:02.492Z,66.25
2022-09-10T09:47:29.080Z,66.80
2022-09-10T09:49:56.161Z,67.18
2022-09-10T09:52:26.479Z,66.74
2022-09-10T09:55:15.704Z,65.49
2022-09-10T09:57:43.062Z,65.63
2022-09-10T10:00:32.864Z,63.69
2022-09-10T10:03:07.189Z,63.58
2022-09-10T10:05:33.836Z,64.51
2022-09-10T10:08:00.405Z,64.37
2022-09-10T10:10:28.262Z,64.21
2022-09-10T10:12:55.339Z,64.39
2022-09-10T10:15:44.388Z,63.54
2022-09-10T10:18:22.986Z,62.85
2022-09-10T10:21:11.575Z,63.19
2022-09-10T10:23:38.989Z,63.30
2022-09-10T10:26:20.924Z,62.51
2022-09-10T10:28:48.935Z,63.14
2022-09-10T10:31:17.371Z,62.36
2022-09-10T10:34:23.438Z,61.07
2022-09-10T10:37:22.985Z,60.13
2022-09-10T10:40:08.434Z,59.81
2022-09-10T10:42:46.215Z,59.16
2022-09-10T10:45:31.712Z,59.62
2022-09-10T10:48:12.400Z,60.16
2022-09-10T10:51:05.076Z,60.83
2022-09-10T10:53:50.187Z,61.37
2022-09-10T10:56:26.099Z,61.09
2022-09-10T10:58:54.529Z,61.50
2022-09-10T11:01:24.661Z,60.57
2022-09-10T11:04:15.937Z,60.11
2022-09-10T11:06:51.689Z,59.82
2022-09-10T11:09:34.574Z,59.04
2022-09-10T11:12:12.060Z,58.57
2022-09-10T11:14:54.065Z,58.10
2022-09-10T11:17:29.402Z,58.03
2022-09-10T11:20:27.891Z,58.15
2022-09-10T11:23:15.014Z,58.18
2022-09-10T11:26:00.544Z,57.70
2022-09-10T11:28:39.475Z,58.32
2022-09-10T11:31:17.349Z,58.25
2022-09-10T11:34:13.922Z,58.80
2022-09-10T11:36:50.680Z,59.06
2022-09-10T11:39:49.381Z,58.07
2022-09-10T11:42:27.384Z,58.48
2022-09-10T11:45:02.982Z,58.08
2022-09-10T11:47:35.561Z,59.06
2022-09-10T11:50:17.284Z,58.35
2022-09-10T11:52:43.888Z,59.10
2022-09-10T11:55:15.724Z,58.50
2022-09-10T11:57:48.413Z,58.57
2022-09-10T12:00:19.507Z,58.85
2022-09-10T12:03:10.740Z,58.26
2022-09-10T12:05:51.658Z,58.36
2022-09-10T12:08:43.844Z,58.58
2022-09-10T12:11:22.298Z,58.75
2022-09-10T12:13:52.657Z,59.61
2022-09-10T12:16:37.465Z,58.54
2022-09-10T12:19:19.014Z,59.14
2022-09-10T12:21:52.811Z,58.37
2022-09-10T12:24:26.721Z,58.56
2022-09-10T12:26:54.718Z,59.01
2022-09-10T12:29:40.191Z,58.29
2022-09-10T12:32:13.664Z,58.68
2022-09-10T12:34:41.070Z,59.62
2022-09-10T12:37:21.337Z,59.33
2022-09-10T12:39:49.105Z,59.59
2022-09-10T12:42:31.999Z,58.49
2022-09-10T12:44:59.331Z,58.88
2022-09-10T12:47:43.256Z,58.38
2022-09-10T12:50:51.664Z,58.18
2022-09-10T12:53:31.385Z,58.37
2022-09-10T12:56:02.198Z,60.79
2022-09-10T12:58:46.690Z,57.46
2022-09-10T13:01:28.911Z,57.78
2022-09-10T13:03:58.862Z,57.83
2022-09-10T13:06:40.837Z,55.17
2022-09-10T13:09:21.008Z,54.48
2022-09-10T13:11:54.107Z,52.88
2022-09-10T13:14:28.986Z,52.50
2022-09-10T13:16:55.557Z,53.18
2022-09-10T13:19:22.046Z,52.86
2022-09-10T13:21:48.567Z,51.18
2022-09-10T13:24:34.252Z,49.90
2022-09-10T13:27:12.754Z,48.41
2022-09-10T13:30:22.135Z,49.04
2022-09-10T13:32:58.996Z,44.21
2022-09-10T13:35:41.336Z,42.78
2022-09-10T13:38:13.740Z,41.92
2022-09-10T13:40:46.382Z,46.47
2022-09-10T13:43:44.589Z,42.18
2022-09-10T13:46:23.657Z,41.33
2022-09-10T13:49:00.165Z,40.89
2022-09-10T13:51:46.171Z,42.00
2022-09-10T13:54:29.518Z,42.19
2022-09-10T13:56:59.783Z,43.05
2022-09-10T13:59:31.145Z,44.11
2022-09-10T14:01:59.510Z,44.03
2022-09-10T14:04:35.614Z,43.60
2022-09-10T14:07:14.306Z,44.20
2022-09-10T14:09:47.079Z,44.21
2022-09-10T14:12:14.822Z,43.92
2022-09-10T14:14:46.967Z,43.67
2022-09-10T14:17:19.703Z,44.28
2022-09-10T14:19:47.784Z,46.73
2022-09-10T14:22:22.382Z,45.34
2022-09-10T14:25:02.624Z,45.80
2022-09-10T14:27:31.203Z,46.08
2022-09-10T14:30:18.340Z,46.64
2022-09-10T14:32:46.293Z,47.14
2022-09-10T14:35:39.478Z,47.48
2022-09-10T14:38:24.978Z,48.87
2022-09-10T14:41:04.296Z,47.75
2022-09-10T14:43:39.082Z,46.67
2022-09-10T14:46:10.588Z,46.95
2022-09-10T14:48:41.050Z,46.60
2022-09-10T14:51:19.359Z,46.75
2022-09-10T14:53:50.844Z,46.45
2022-09-10T14:56:22.959Z,46.86
2022-09-10T14:58:58.353Z,47.27
2022-09-10T15:01:25.751Z,47.21
2022-09-10T15:03:52.533Z,47.59
2022-09-10T15:06:21.943Z,47.93
2022-09-10T15:08:51.207Z,48.08
2022-09-10T15:11:21.067Z,47.84
2022-09-10T15:13:48.431Z,47.94
2022-09-10T15:16:15.117Z,47.90
2022-09-10T15:18:41.698Z,47.94
2022-09-10T15:21:13.218Z,47.47
2022-09-10T15:23:39.930Z,48.00
2022-09-10T15:26:07.142Z,48.20
2022-09-10T15:28:33.686Z,48.26
2022-09-10T15:31:01.424Z,48.72
2022-09-10T15:33:28.631Z,48.64
2022-09-10T15:35:55.099Z,48.41
2022-09-10T15:38:21.906Z,49.30
2022-09-10T15:40:50.161Z,49.07
2022-09-10T15:43:19.256Z,48.93
2022-09-10T15:45:47.508Z,49.00
2022-09-10T15:48:14.193Z,48.82
2022-09-10T15:50:41.847Z,48.98
2022-09-10T15:53:11.686Z,49.08
2022-09-10T15:55:38.904Z,48.99
2022-09-10T15:58:05.594Z,49.02
2022-09-10T16:00:34.416Z,49.08
2022-09-10T16:03:01.884Z,49.16
2022-09-10T16:05:28.747Z,49.77
2022-09-10T16:07:55.255Z,50.30
2022-09-10T16:10:21.795Z,50.10
2022-09-10T16:12:48.546Z,49.80
2022-09-10T16:15:15.516Z,49.77
2022-09-10T16:17:42.233Z,50.19
2022-09-10T16:20:09.865Z,50.00
2022-09-10T16:22:36.880Z,50.29
2022-09-10T16:25:08.216Z,49.98
2022-09-10T16:27:34.951Z,50.27
2022-09-10T16:30:01.510Z,50.51
2022-09-10T16:32:28.797Z,51.20
2022-09-10T16:34:55.784Z,50.87
2022-09-10T16:37:27.199Z,50.62
2022-09-10T16:39:53.790Z,51.39
2022-09-10T16:42:20.512Z,51.55
2022-09-10T16:44:46.993Z,51.95
2022-09-10T16:47:14.297Z,51.86
2022-09-10T16:49:41.341Z,52.12
2022-09-10T16:52:07.987Z,51.79
2022-09-10T16:54:34.550Z,52.19
2022-09-10T16:57:02.116Z,52.74
2022-09-10T16:59:31.465Z,52.61
2022-09-10T17:01:59.579Z,52.38
2022-09-10T17:04:29.153Z,52.32
2022-09-10T17:06:57.552Z,52.72
2022-09-10T17:09:24.986Z,52.96
2022-09-10T17:11:51.760Z,52.84
2022-09-10T17:14:18.241Z,53.14
2022-09-10T17:16:44.891Z,53.22
2022-09-10T17:19:17.654Z,53.36
2022-09-10T17:21:50.914Z,54.02
2022-09-10T17:24:18.804Z,53.51
2022-09-10T17:26:46.083Z,53.87
2022-09-10T17:29:14.858Z,53.83
2022-09-10T17:31:42.056Z,54.01
2022-09-10T17:34:12.875Z,54.25
2022-09-10T17:36:40.935Z,54.52
2022-09-10T17:39:07.574Z,54.86
2022-09-10T17:41:34.253Z,55.15
2022-09-10T17:44:01.308Z,55.23
2022-09-10T17:46:28.354Z,55.48
2022-09-10T17:48:55.173Z,55.26
2022-09-10T17:51:27.661Z,55.62
2022-09-10T17:53:55.352Z,55.72
2022-09-10T17:56:23.526Z,55.53
2022-09-10T17:58:51.697Z,55.48
2022-09-10T18:01:23.315Z,55.03
2022-09-10T18:03:50.859Z,54.57
2022-09-10T18:06:17.411Z,54.69
2022-09-10T18:08:44.459Z,55.01
2022-09-10T18:11:14.621Z,55.40
2022-09-10T18:13:41.219Z,55.32
2022-09-10T18:16:09.863Z,55.34
2022-09-10T18:18:38.116Z,55.24
2022-09-10T18:21:19.744Z,55.79
2022-09-10T18:23:54.143Z,55.74
2022-09-10T18:26:22.773Z,55.77
2022-09-10T18:29:03.960Z,56.19
2022-09-10T18:31:36.935Z,56.29
2022-09-10T18:34:03.885Z,55.80
2022-09-10T18:36:31.502Z,55.72
2022-09-10T18:38:58.748Z,56.04
2022-09-10T18:41:27.655Z,56.46
2022-09-10T18:43:57.842Z,56.89
2022-09-10T18:46:26.101Z,56.93
2022-09-10T18:48:53.178Z,57.08
2022-09-10T18:51:22.727Z,57.53
2022-09-10T18:53:53.423Z,58.02
2022-09-10T18:56:25.769Z,57.87
2022-09-10T18:58:55.933Z,58.10
2022-09-10T19:01:24.223Z,58.11
2022-09-10T19:03:51.365Z,57.92
2022-09-10T19:06:21.434Z,58.65
2022-09-10T19:08:55.320Z,58.61
2022-09-10T19:11:24.492Z,58.86
2022-09-10T19:13:56.164Z,59.34
2022-09-10T19:16:25.522Z,59.26
2022-09-10T19:18:54.251Z,59.30
2022-09-10T19:21:22.100Z,59.53
2022-09-10T19:23:49.952Z,59.35
2022-09-10T19:26:18.376Z,59.56
2022-09-10T19:28:46.393Z,59.67
2022-09-10T19:31:15.891Z,59.62
2022-09-10T19:33:42.458Z,59.52
2022-09-10T19:36:13.854Z,59.78
2022-09-10T19:38:41.193Z,59.88
2022-09-10T19:41:12.267Z,59.53
2022-09-10T19:43:40.940Z,59.50
2022-09-10T19:46:12.870Z,59.49
2022-09-10T19:48:40.173Z,59.37
2022-09-10T19:51:10.465Z,59.27
2022-09-10T19:53:37.833Z,59.43
2022-09-10T19:56:10.284Z,59.36
2022-09-10T19:58:37.739Z,59.15
2022-09-10T20:01:12.307Z,59.67
2022-09-10T20:03:40.384Z,59.74
2022-09-10T20:06:08.681Z,59.61
2022-09-10T20:08:35.383Z,59.48
2022-09-10T20:11:06.004Z,59.65
2022-09-10T20:13:33.780Z,59.72
2022-09-10T20:16:02.684Z,59.58
2022-09-10T20:18:30.830Z,59.70
2022-09-10T20:21:08.349Z,59.92
2022-09-10T20:23:36.525Z,59.82
2022-09-10T20:26:18.395Z,59.90
2022-09-10T20:28:49.668Z,59.69
2022-09-10T20:31:16.578Z,59.63
2022-09-10T20:33:43.399Z,59.68
2022-09-10T20:36:15.657Z,60.03
2022-09-10T20:38:43.379Z,60.02
2022-09-10T20:41:15.909Z,60.29
2022-09-10T20:43:42.717Z,60.20
2022-09-10T20:46:15.039Z,60.83
2022-09-10T20:48:45.886Z,60.39
2022-09-10T20:51:15.179Z,60.45
2022-09-10T20:53:41.860Z,60.64
2022-09-10T20:56:11.798Z,60.73
2022-09-10T20:58:39.114Z,60.71
2022-09-10T21:01:11.338Z,60.89
2022-09-10T21:03:39.221Z,60.94
2022-09-10T21:06:05.942Z,60.66
2022-09-10T21:08:32.537Z,60.63
2022-09-10T21:11:05.020Z,61.17
2022-09-10T21:13:36.298Z,60.72
2022-09-10T21:16:10.473Z,61.28
2022-09-10T21:18:37.834Z,61.00
2022-09-10T21:21:12.804Z,61.47
2022-09-10T21:23:47.918Z,61.20
2022-09-10T21:26:17.310Z,61.20
2022-09-10T21:28:47.721Z,60.99
2022-09-10T21:31:14.718Z,60.98
2022-09-10T21:33:42.664Z,61.14
2022-09-10T21:36:14.947Z,61.59
2022-09-10T21:38:42.104Z,61.20
2022-09-10T21:41:13.441Z,61.34
2022-09-10T21:43:46.404Z,61.56
2022-09-10T21:46:13.740Z,61.01
2022-09-10T21:48:42.493Z,61.17
2022-09-10T21:51:13.357Z,61.67
2022-09-10T21:53:41.621Z,61.72
2022-09-10T21:56:10.057Z,61.67
2022-09-10T21:58:37.158Z,61.71
2022-09-10T22:01:09.781Z,61.80
2022-09-10T22:03:36.249Z,61.46
2022-09-10T22:06:22.995Z,61.81
2022-09-10T22:08:52.347Z,61.67
2022-09-10T22:11:24.477Z,62.41
2022-09-10T22:13:53.342Z,61.89
2022-09-10T22:16:21.132Z,61.70
2022-09-10T22:18:47.964Z,61.57
2022-09-10T22:21:15.679Z,62.03
2022-09-10T22:23:42.280Z,61.84
2022-09-10T22:26:16.387Z,61.83
2022-09-10T22:28:43.640Z,61.91
2022-09-10T22:31:19.587Z,62.19
2022-09-10T22:33:51.783Z,61.90
2022-09-10T22:36:28.751Z,62.59
2022-09-10T22:38:59.358Z,62.03
2022-09-10T22:41:27.196Z,61.77
2022-09-10T22:43:54.239Z,61.89
2022-09-10T22:46:21.286Z,62.01
2022-09-10T22:48:47.843Z,62.26
2022-09-10T22:51:20.178Z,62.31
2022-09-10T22:53:47.065Z,62.20
2022-09-10T22:56:14.811Z,62.32
2022-09-10T22:58:41.404Z,62.46
2022-09-10T23:01:16.366Z,63.36
2022-09-10T23:03:44.360Z,62.67
2022-09-10T23:06:15.068Z,63.04
2022-09-10T23:08:44.096Z,62.79
2022-09-10T23:11:21.557Z,63.56
2022-09-10T23:13:52.451Z,63.03
2022-09-10T23:16:40.483Z,63.46
2022-09-10T23:19:11.526Z,63.56
2022-09-10T23:21:45.068Z,63.45
2022-09-10T23:24:14.254Z,63.44
2022-09-10T23:26:41.679Z,63.17
2022-09-10T23:29:08.842Z,63.46
2022-09-10T23:31:37.862Z,63.41
2022-09-10T23:34:11.614Z,63.73
2022-09-10T23:36:40.519Z,63.56
2022-09-10T23:39:11.412Z,63.54
2022-09-10T23:41:39.203Z,63.18
2022-09-10T23:44:05.951Z,63.49
2022-09-10T23:46:32.692Z,63.44
2022-09-10T23:48:59.264Z,63.21
2022-09-10T23:51:26.146Z,63.20
2022-09-10T23:53:54.654Z,63.15
2022-09-10T23:56:23.324Z,63.35
2022-09-10T23:58:49.841Z,63.46
